Terminal Aerodrome Forecast
Issued by NWS Topeka, KS

Home | Current Version | Previous Version | Text Only | Print | Product List | Glossary On
Versions: 1 2 3 4 5 6 7 8 9 10 11 12 13
371
FTUS43 KTOP 062320
TAFTOP
TAF
KTOP 062320Z 0700/0724 19009KT P6SM SKC
     FM070700 19007KT P6SM FEW200 WS015/22040KT
     FM071300 21012KT P6SM SCT200=

USA.gov is the U.S. government's official web portal to all federal, state and local government web resources and services.